Time;durP1;ratioP1;P1;durP2;ratioP2;P2;SDS_P1;SDS_P2;PMS_P1;PMS_P2;Temp;Humidity;BMP_temperature;BMP_pressure;BME280_temperature;BME280_humidity;BME280_pressure;Samples;Min_cycle;Max_cycle;Signal;HPM_P1;HPM_P2
2023/04/08 00:00:57;;;;;;;189.13;172.70;;;8.40;30.00;;;;;;5031590;28;20180;-69
2023/04/08 00:03:22;;;;;;;430.97;405.03;;;8.30;30.50;;;;;;5032504;28;20181;-69
2023/04/08 00:05:48;;;;;;;300.97;281.97;;;8.20;31.40;;;;;;5032636;28;20244;-69
2023/04/08 00:08:13;;;;;;;556.37;520.67;;;8.20;31.50;;;;;;5032471;28;20212;-69
2023/04/08 00:10:39;;;;;;;552.23;514.63;;;8.20;31.80;;;;;;5031235;28;20544;-69
2023/04/08 00:13:04;;;;;;;463.63;434.37;;;8.30;32.20;;;;;;5031194;28;20241;-69
2023/04/08 00:15:30;;;;;;;475.93;448.10;;;8.30;31.70;;;;;;5033044;28;20206;-69
2023/04/08 00:17:55;;;;;;;359.73;335.77;;;8.40;31.50;;;;;;5030723;28;20359;-69
2023/04/08 00:20:23;;;;;;;451.73;423.83;;;8.50;31.10;;;;;;5032484;28;20260;-69
2023/04/08 00:22:48;;;;;;;686.97;643.17;;;8.40;31.30;;;;;;5030843;28;20706;-68
2023/04/08 00:25:14;;;;;;;475.60;446.43;;;8.40;30.70;;;;;;5032591;28;20510;-69
2023/04/08 00:27:39;;;;;;;437.33;409.57;;;8.30;31.10;;;;;;5030880;28;20213;-69
2023/04/08 00:30:05;;;;;;;478.00;449.30;;;8.30;31.90;;;;;;5032035;28;20179;-69
2023/04/08 00:32:31;;;;;;;482.67;451.13;;;8.30;32.00;;;;;;5032178;28;20246;-69
2023/04/08 00:34:57;;;;;;;455.97;426.90;;;8.40;31.50;;;;;;5032361;28;20506;-69
2023/04/08 00:37:23;;;;;;;446.40;418.40;;;8.50;30.60;;;;;;5031026;28;20454;-69
2023/04/08 00:39:49;;;;;;;503.73;474.17;;;8.50;31.20;;;;;;5032247;28;20508;-69
2023/04/08 00:42:16;;;;;;;407.10;380.67;;;8.50;31.90;;;;;;5032293;28;20413;-69
2023/04/08 00:44:41;;;;;;;433.70;406.67;;;8.50;31.90;;;;;;5032471;28;20418;-69
2023/04/08 00:47:10;;;;;;;464.60;433.33;;;8.50;31.30;;;;;;5033150;28;20416;-70
2023/04/08 00:49:36;;;;;;;290.40;269.03;;;8.50;31.90;;;;;;5032239;28;20280;-70
2023/04/08 00:52:01;;;;;;;231.03;214.30;;;8.50;30.70;;;;;;5033273;28;20457;-70
2023/04/08 00:54:27;;;;;;;561.00;524.93;;;8.60;31.20;;;;;;5033274;28;20604;-69
2023/04/08 00:56:52;;;;;;;571.70;535.77;;;8.60;30.70;;;;;;5032793;28;20209;-69
2023/04/08 00:59:18;;;;;;;401.83;377.17;;;8.60;31.40;;;;;;5033024;28;20207;-69
2023/04/08 01:01:55;;;;;;;252.90;235.10;;;8.40;32.00;;;;;;5032893;28;20657;-70
2023/04/08 01:04:35;;;;;;;401.03;372.37;;;8.40;32.80;;;;;;5031437;28;20585;-69
2023/04/08 01:07:12;;;;;;;577.13;541.50;;;8.40;32.80;;;;;;5030912;28;20431;-69
2023/04/08 01:09:43;;;;;;;609.90;572.83;;;8.40;32.90;;;;;;5032025;28;20423;-69
2023/04/08 01:12:12;;;;;;;488.77;457.27;;;8.50;31.80;;;;;;5030809;28;20838;-69
2023/04/08 01:14:42;;;;;;;339.37;314.97;;;8.40;32.60;;;;;;5031981;28;20443;-69
2023/04/08 01:17:09;;;;;;;587.67;549.80;;;8.40;32.60;;;;;;5031636;28;20463;-70
2023/04/08 01:19:39;;;;;;;456.47;426.20;;;8.30;32.80;;;;;;5032003;28;20505;-69
2023/04/08 01:22:11;;;;;;;235.40;217.13;;;8.40;32.70;;;;;;5032493;28;20420;-69
2023/04/08 01:24:41;;;;;;;332.43;310.63;;;8.40;32.00;;;;;;5032433;28;20477;-68
2023/04/08 01:27:09;;;;;;;296.53;275.63;;;8.40;32.30;;;;;;5032569;28;20415;-69
2023/04/08 01:29:36;;;;;;;417.13;389.73;;;8.40;31.80;;;;;;5032324;28;20859;-69
2023/04/08 01:32:03;;;;;;;558.00;523.73;;;8.30;33.20;;;;;;5034906;28;20426;-69
2023/04/08 01:34:29;;;;;;;554.43;519.97;;;8.20;33.40;;;;;;5036401;28;20415;-69
2023/04/08 01:36:56;;;;;;;363.77;339.50;;;8.20;34.10;;;;;;5035924;28;20493;-69
2023/04/08 01:39:24;;;;;;;487.43;456.63;;;8.30;33.30;;;;;;5036075;28;20445;-69
2023/04/08 01:41:53;;;;;;;252.40;233.93;;;8.30;33.70;;;;;;5036142;28;20440;-69
2023/04/08 01:44:21;;;;;;;370.00;344.87;;;8.20;34.40;;;;;;5036575;28;20455;-69
2023/04/08 01:46:47;;;;;;;360.57;337.53;;;8.20;34.90;;;;;;5034465;28;20452;-69
2023/04/08 01:49:15;;;;;;;267.43;247.00;;;8.20;35.40;;;;;;5035891;28;20461;-68
2023/04/08 01:51:43;;;;;;;258.63;240.03;;;8.30;34.70;;;;;;5035722;28;20947;-69
2023/04/08 01:54:08;;;;;;;439.67;412.67;;;8.30;34.10;;;;;;5035617;28;20421;-69
2023/04/08 01:56:39;;;;;;;298.83;277.80;;;8.30;34.90;;;;;;5034874;28;20462;-70
2023/04/08 01:59:10;;;;;;;591.63;556.27;;;8.20;35.60;;;;;;5033872;28;20569;-69
2023/04/08 02:01:36;;;;;;;391.90;368.33;;;8.20;35.80;;;;;;5033426;28;20418;-69
2023/04/08 02:04:02;;;;;;;527.80;495.90;;;8.20;35.60;;;;;;5034907;28;20769;-69
2023/04/08 02:06:30;;;;;;;162.87;148.87;;;8.20;36.50;;;;;;5034908;28;20208;-69
2023/04/08 02:08:55;;;;;;;281.57;260.07;;;8.20;36.40;;;;;;5034951;28;20438;-69
2023/04/08 02:14:43;;;;;;;545.00;510.73;;;8.30;35.40;;;;;;5034330;28;20235;-69
2023/04/08 02:17:18;;;;;;;168.93;153.53;;;8.40;35.00;;;;;;5034370;28;21019;-69
2023/04/08 02:20:04;;;;;;;416.87;390.37;;;8.40;35.10;;;;;;5033177;28;20180;-69
2023/04/08 02:22:48;;;;;;;467.10;435.63;;;8.50;34.00;;;;;;5033935;28;20427;-69
2023/04/08 02:25:16;;;;;;;499.40;469.83;;;8.50;34.00;;;;;;5034324;28;20814;-68
2023/04/08 02:27:45;;;;;;;439.20;410.73;;;8.40;34.40;;;;;;5033973;28;20458;-68
2023/04/08 02:30:12;;;;;;;629.43;590.43;;;8.30;34.90;;;;;;5034305;28;20420;-68
2023/04/08 02:32:38;;;;;;;534.07;502.67;;;8.30;35.00;;;;;;5034179;28;20505;-68
2023/04/08 02:35:04;;;;;;;406.03;380.60;;;8.30;35.00;;;;;;5034359;28;20495;-68
2023/04/08 02:37:31;;;;;;;500.37;468.30;;;8.30;34.60;;;;;;5033992;28;20211;-68
2023/04/08 02:39:57;;;;;;;195.07;178.83;;;8.30;35.70;;;;;;5033219;28;20924;-68
2023/04/08 02:42:23;;;;;;;367.20;343.27;;;8.30;35.10;;;;;;5033399;28;20512;-68
2023/04/08 02:44:50;;;;;;;282.67;261.47;;;8.10;35.60;;;;;;5034187;28;20850;-68
2023/04/08 02:47:15;;;;;;;506.83;475.73;;;8.20;36.00;;;;;;5033817;28;20244;-68
2023/04/08 02:49:41;;;;;;;209.53;192.27;;;8.20;35.60;;;;;;5034021;28;20792;-68
2023/04/08 02:52:06;;;;;;;382.77;357.50;;;8.10;35.80;;;;;;5033645;28;20182;-68
2023/04/08 02:54:32;;;;;;;369.57;346.07;;;8.10;35.60;;;;;;5033899;28;20182;-68
2023/04/08 02:56:57;;;;;;;419.80;394.63;;;8.00;36.20;;;;;;5034147;28;20542;-68
2023/04/08 02:59:23;;;;;;;309.67;287.53;;;8.00;37.00;;;;;;5033487;28;20291;-68
2023/04/08 03:01:48;;;;;;;372.20;348.20;;;8.10;36.50;;;;;;5033617;28;20257;-68
2023/04/08 03:04:14;;;;;;;455.17;427.63;;;8.00;36.20;;;;;;5032658;28;20681;-68
2023/04/08 03:06:39;;;;;;;257.53;238.67;;;8.00;36.10;;;;;;5034137;28;20256;-68
2023/04/08 03:09:05;;;;;;;146.47;132.73;;;8.00;36.20;;;;;;5032565;28;20231;-68
2023/04/08 03:11:31;;;;;;;526.27;494.57;;;7.90;36.60;;;;;;5033445;28;20180;-68
2023/04/08 03:13:57;;;;;;;327.33;305.63;;;8.00;36.70;;;;;;5033564;28;20511;-68
2023/04/08 03:16:22;;;;;;;472.73;444.87;;;8.10;35.60;;;;;;5033393;28;20196;-68
2023/04/08 03:18:50;;;;;;;220.67;203.33;;;8.10;35.50;;;;;;5032180;28;20199;-68
2023/04/08 03:21:16;;;;;;;367.20;342.60;;;8.00;35.50;;;;;;5033524;28;20179;-68
2023/04/08 03:23:41;;;;;;;350.67;326.23;;;8.00;35.50;;;;;;5033736;28;20958;-68
2023/04/08 03:26:07;;;;;;;385.87;360.03;;;8.00;35.50;;;;;;5033335;28;20419;-68
2023/04/08 03:28:32;;;;;;;573.20;537.07;;;8.00;35.40;;;;;;5033315;28;20281;-68
2023/04/08 03:30:59;;;;;;;521.93;489.43;;;8.00;35.30;;;;;;5033146;28;20263;-68
2023/04/08 03:33:25;;;;;;;409.43;384.33;;;8.00;35.00;;;;;;5032996;28;20179;-68
2023/04/08 03:35:50;;;;;;;477.30;446.93;;;7.90;35.40;;;;;;5032899;28;20459;-68
2023/04/08 03:38:16;;;;;;;578.33;541.37;;;8.00;35.50;;;;;;5031748;28;20273;-68
2023/04/08 03:40:41;;;;;;;435.80;408.80;;;8.10;35.50;;;;;;5032953;28;20720;-68
2023/04/08 03:43:07;;;;;;;541.17;507.03;;;8.10;34.70;;;;;;5032823;28;20250;-68
2023/04/08 03:45:33;;;;;;;559.50;524.43;;;8.00;35.00;;;;;;5032908;28;20182;-68
2023/04/08 03:47:58;;;;;;;479.63;448.03;;;8.10;34.90;;;;;;5031442;28;20222;-68
2023/04/08 03:50:24;;;;;;;490.57;458.33;;;8.10;34.80;;;;;;5032785;28;20613;-68
2023/04/08 03:52:50;;;;;;;524.07;490.30;;;8.10;33.80;;;;;;5029686;28;20180;-68
2023/04/08 03:55:15;;;;;;;520.80;489.80;;;8.10;34.20;;;;;;5031617;28;20180;-68
2023/04/08 03:57:42;;;;;;;165.27;151.50;;;8.00;33.70;;;;;;5032430;28;20214;-68
2023/04/08 04:00:08;;;;;;;489.90;457.57;;;8.00;34.30;;;;;;5032624;28;20236;-68
2023/04/08 04:02:34;;;;;;;649.23;608.63;;;8.00;33.40;;;;;;5032550;28;20510;-68
2023/04/08 04:04:59;;;;;;;565.03;529.43;;;7.90;33.80;;;;;;5032572;28;20833;-68
2023/04/08 04:07:25;;;;;;;176.67;162.50;;;7.80;33.90;;;;;;5032453;28;20577;-68
2023/04/08 04:09:53;;;;;;;516.83;483.53;;;7.80;33.90;;;;;;5032574;28;20181;-68
2023/04/08 04:12:18;;;;;;;556.30;521.20;;;7.70;33.40;;;;;;5032560;28;20179;-68
2023/04/08 04:14:44;;;;;;;452.27;423.23;;;7.60;33.70;;;;;;5032700;28;20550;-68
2023/04/08 04:17:09;;;;;;;501.90;470.30;;;7.50;34.40;;;;;;5032191;28;20571;-68
2023/04/08 04:19:35;;;;;;;585.70;548.97;;;7.40;34.20;;;;;;5032442;28;20322;-69
2023/04/08 04:22:01;;;;;;;520.90;487.27;;;7.40;34.50;;;;;;5032407;28;20170;-69
2023/04/08 04:24:26;;;;;;;493.10;460.37;;;7.30;34.30;;;;;;5032426;28;20419;-68
2023/04/08 04:26:52;;;;;;;467.97;439.93;;;7.30;34.30;;;;;;5032444;28;20252;-69
2023/04/08 04:29:17;;;;;;;365.03;342.73;;;7.30;34.40;;;;;;5031881;28;20211;-69
2023/04/08 04:31:43;;;;;;;661.13;618.57;;;7.40;34.10;;;;;;5032564;28;20182;-70
2023/04/08 04:34:08;;;;;;;371.63;347.03;;;7.40;33.70;;;;;;5032850;28;20189;-69
2023/04/08 04:36:34;;;;;;;489.63;458.10;;;7.40;34.90;;;;;;5030947;28;20261;-69
2023/04/08 04:39:00;;;;;;;334.63;312.33;;;7.40;34.70;;;;;;5032423;28;20620;-69
2023/04/08 04:41:26;;;;;;;465.20;436.20;;;7.40;35.00;;;;;;5032150;28;20664;-69
2023/04/08 04:43:51;;;;;;;325.20;304.33;;;7.30;35.50;;;;;;5032019;28;20176;-70
2023/04/08 04:46:17;;;;;;;298.73;276.57;;;7.40;36.30;;;;;;5031192;28;20415;-70
2023/04/08 04:48:42;;;;;;;394.30;367.90;;;7.30;36.00;;;;;;5031788;28;20199;-69
2023/04/08 04:51:08;;;;;;;443.43;415.07;;;7.30;35.80;;;;;;5030669;28;20179;-69
2023/04/08 04:53:33;;;;;;;554.10;518.90;;;7.30;35.90;;;;;;5033322;28;20545;-69
2023/04/08 04:56:02;;;;;;;394.83;368.23;;;7.20;36.00;;;;;;5031882;28;20646;-69
2023/04/08 04:58:28;;;;;;;343.53;319.60;;;7.20;35.70;;;;;;5033095;28;20222;-69
2023/04/08 05:00:53;;;;;;;432.83;405.30;;;7.20;35.90;;;;;;5033313;28;20414;-69
2023/04/08 05:03:19;;;;;;;444.17;419.20;;;7.20;35.50;;;;;;5032174;28;20410;-70
2023/04/08 05:05:49;;;;;;;403.97;380.20;;;7.20;35.60;;;;;;5035311;28;20191;-69
2023/04/08 05:08:15;;;;;;;390.73;367.80;;;7.20;36.20;;;;;;5036766;28;20531;-69
2023/04/08 05:10:40;;;;;;;425.10;400.50;;;7.30;35.90;;;;;;5034994;28;20468;-69
2023/04/08 05:13:06;;;;;;;129.60;117.07;;;7.30;35.80;;;;;;5035985;28;20549;-69
2023/04/08 05:15:32;;;;;;;304.77;282.77;;;7.30;35.90;;;;;;5035873;28;20567;-70
2023/04/08 05:17:57;;;;;;;374.00;350.70;;;7.30;35.80;;;;;;5035659;28;20198;-69
2023/04/08 05:20:22;;;;;;;324.20;303.00;;;7.40;35.00;;;;;;5035624;28;20175;-70
2023/04/08 05:22:48;;;;;;;424.87;400.37;;;7.40;36.00;;;;;;5035788;28;20175;-69
2023/04/08 05:25:14;;;;;;;550.70;517.60;;;7.40;35.00;;;;;;5036130;28;20685;-69
2023/04/08 05:27:39;;;;;;;141.63;129.10;;;7.40;35.00;;;;;;5035495;28;20213;-69
2023/04/08 05:30:06;;;;;;;264.93;247.20;;;7.50;35.00;;;;;;5035846;28;20512;-69
2023/04/08 05:32:31;;;;;;;129.40;117.27;;;7.50;35.00;;;;;;5035401;28;20258;-69
2023/04/08 05:34:57;;;;;;;583.97;548.80;;;7.60;35.10;;;;;;5035628;28;21012;-69
2023/04/08 05:37:22;;;;;;;374.10;348.60;;;7.60;35.00;;;;;;5035130;28;20242;-70
2023/04/08 05:39:48;;;;;;;463.07;435.53;;;7.70;35.90;;;;;;5035100;28;20199;-69
2023/04/08 05:42:13;;;;;;;398.73;375.67;;;7.80;34.20;;;;;;5035028;28;20169;-70
2023/04/08 05:44:42;;;;;;;573.30;539.27;;;7.80;33.40;;;;;;5035129;28;20194;-70
2023/04/08 05:47:08;;;;;;;484.13;453.87;;;7.90;32.90;;;;;;5034925;28;20183;-70
2023/04/08 05:49:34;;;;;;;452.80;424.93;;;8.00;33.20;;;;;;5033663;28;20423;-70
2023/04/08 05:51:59;;;;;;;171.57;156.07;;;8.10;32.60;;;;;;5034758;28;20641;-69
2023/04/08 05:54:25;;;;;;;425.20;397.77;;;8.20;31.20;;;;;;5034813;28;20652;-69
2023/04/08 05:56:50;;;;;;;478.60;449.70;;;8.20;30.90;;;;;;5033621;28;20209;-70
2023/04/08 05:59:16;;;;;;;522.50;490.90;;;8.30;30.50;;;;;;5034860;28;20610;-69
2023/04/08 06:01:41;;;;;;;252.40;234.00;;;8.30;31.20;;;;;;5034634;28;20177;-69
2023/04/08 06:04:07;;;;;;;593.13;556.17;;;8.30;30.50;;;;;;5034692;28;20251;-69
2023/04/08 06:06:32;;;;;;;308.67;287.67;;;8.30;30.50;;;;;;5034639;28;20176;-69
2023/04/08 06:08:58;;;;;;;269.87;250.40;;;8.40;30.40;;;;;;5034775;28;20204;-69
2023/04/08 06:11:23;;;;;;;413.23;385.60;;;8.50;30.00;;;;;;5034987;28;20193;-70
2023/04/08 06:13:49;;;;;;;664.97;623.23;;;8.50;30.60;;;;;;5034519;28;20515;-70
2023/04/08 06:16:16;;;;;;;575.40;539.13;;;8.70;30.00;;;;;;5033502;28;20200;-69
2023/04/08 06:18:42;;;;;;;520.63;487.13;;;8.80;29.60;;;;;;5034314;28;20189;-68
2023/04/08 06:21:08;;;;;;;440.97;412.87;;;9.00;28.70;;;;;;5034244;28;20422;-69
2023/04/08 06:23:34;;;;;;;255.73;236.50;;;9.10;27.50;;;;;;5034140;28;20533;-69
2023/04/08 06:25:59;;;;;;;182.50;166.80;;;9.10;27.40;;;;;;5034176;28;20499;-69
2023/04/08 06:28:25;;;;;;;320.20;295.47;;;9.00;26.90;;;;;;5033796;28;20225;-69
2023/04/08 06:30:51;;;;;;;283.23;260.60;;;9.10;26.90;;;;;;5034076;28;20183;-69
2023/04/08 06:33:16;;;;;;;607.53;567.50;;;9.10;27.00;;;;;;5033938;28;20537;-68
2023/04/08 06:35:42;;;;;;;436.43;406.27;;;9.10;26.90;;;;;;5033990;28;20178;-69
2023/04/08 06:38:07;;;;;;;430.33;400.00;;;9.20;26.00;;;;;;5033932;28;20620;-69
2023/04/08 06:40:33;;;;;;;606.57;567.77;;;9.00;25.60;;;;;;5034075;28;20173;-68
2023/04/08 06:42:58;;;;;;;315.00;293.10;;;8.90;26.20;;;;;;5033690;28;20177;-69
2023/04/08 06:45:24;;;;;;;312.80;289.90;;;8.80;26.30;;;;;;5032512;28;20185;-68
2023/04/08 06:47:50;;;;;;;370.33;346.40;;;9.00;26.80;;;;;;5033747;28;20538;-69
2023/04/08 06:50:16;;;;;;;459.93;428.57;;;8.90;25.70;;;;;;5033890;28;20425;-69
2023/04/08 06:52:41;;;;;;;462.97;430.50;;;9.00;25.80;;;;;;5033900;28;20247;-69
2023/04/08 06:55:07;;;;;;;383.67;357.63;;;9.10;24.50;;;;;;5033829;28;20269;-68
2023/04/08 06:57:32;;;;;;;517.47;483.33;;;9.20;25.10;;;;;;5043521;28;20217;-69
2023/04/08 06:59:59;;;;;;;453.97;424.60;;;9.10;23.90;;;;;;5037253;28;20438;-69
2023/04/08 07:02:25;;;;;;;341.97;318.83;;;9.00;24.80;;;;;;5033895;28;20174;-68
2023/04/08 07:04:50;;;;;;;338.27;315.17;;;8.90;25.10;;;;;;5034027;28;20418;-69
2023/04/08 07:07:16;;;;;;;520.63;486.43;;;9.00;25.00;;;;;;5034010;28;20674;-69
2023/04/08 07:09:44;;;;;;;362.43;336.63;;;9.00;24.30;;;;;;5033845;28;20178;-69
2023/04/08 07:12:10;;;;;;;334.23;310.97;;;8.90;25.00;;;;;;5033929;28;20650;-69
2023/04/08 07:14:36;;;;;;;384.13;358.70;;;8.90;25.50;;;;;;5037932;28;20431;-69
2023/04/08 07:17:01;;;;;;;357.50;331.77;;;8.90;25.60;;;;;;5046960;28;20458;-68
2023/04/08 07:19:27;;;;;;;364.07;336.67;;;9.00;24.40;;;;;;5033774;28;20206;-69
2023/04/08 07:21:53;;;;;;;436.60;408.37;;;8.90;25.40;;;;;;5033329;28;20220;-68
2023/04/08 07:24:18;;;;;;;450.23;419.90;;;8.70;25.20;;;;;;5035085;28;20178;-69
2023/04/08 07:26:44;;;;;;;470.23;439.83;;;8.60;25.40;;;;;;5053575;28;20188;-70
2023/04/08 07:29:10;;;;;;;290.53;269.57;;;8.70;26.60;;;;;;5053184;28;20211;-69
2023/04/08 07:31:35;;;;;;;256.40;236.83;;;8.80;26.50;;;;;;5053073;28;20203;-70
2023/04/08 07:34:01;;;;;;;589.20;551.33;;;8.70;26.00;;;;;;5053721;28;20182;-71
2023/04/08 07:36:27;;;;;;;298.93;277.50;;;8.70;26.30;;;;;;5033637;28;20598;-71
2023/04/08 07:38:52;;;;;;;364.00;339.00;;;8.80;26.50;;;;;;5032370;28;20752;-71
2023/04/08 07:41:18;;;;;;;425.17;396.43;;;8.70;25.80;;;;;;5033190;28;20514;-71
2023/04/08 07:43:44;;;;;;;326.97;302.90;;;8.80;26.20;;;;;;5033487;28;20219;-71
2023/04/08 07:46:09;;;;;;;540.37;503.07;;;8.80;25.40;;;;;;5050212;28;20273;-71
2023/04/08 07:48:35;;;;;;;325.67;301.57;;;8.70;25.40;;;;;;5052841;28;20206;-70
2023/04/08 07:51:05;;;;;;;431.17;403.37;;;8.60;26.00;;;;;;5051865;28;20439;-71
2023/04/08 07:53:32;;;;;;;394.83;366.83;;;8.70;26.60;;;;;;5052841;28;20274;-71
2023/04/08 07:55:57;;;;;;;390.40;364.70;;;8.80;25.80;;;;;;5053367;28;20599;-70
2023/04/08 07:58:23;;;;;;;225.80;207.50;;;8.90;25.30;;;;;;5053978;28;20964;-70
2023/04/08 08:00:49;;;;;;;452.50;423.13;;;8.90;24.90;;;;;;5055043;28;20252;-70
2023/04/08 08:03:15;;;;;;;395.17;369.20;;;9.00;24.60;;;;;;5054953;28;20474;-70
2023/04/08 08:05:41;;;;;;;432.90;403.57;;;9.10;24.60;;;;;;5042282;28;20427;-69
2023/04/08 08:08:06;;;;;;;523.17;489.27;;;9.10;24.10;;;;;;5041578;28;20202;-69
2023/04/08 08:10:32;;;;;;;326.23;299.50;;;8.90;24.50;;;;;;5033740;28;20677;-70
2023/04/08 08:12:58;;;;;;;357.27;332.63;;;9.10;24.70;;;;;;5035140;28;20188;-69
2023/04/08 08:15:24;;;;;;;390.27;364.90;;;9.20;24.40;;;;;;5033689;28;20460;-69
2023/04/08 08:17:49;;;;;;;429.47;401.37;;;9.40;24.20;;;;;;5044278;28;20213;-70
2023/04/08 08:20:15;;;;;;;389.97;364.23;;;9.60;22.60;;;;;;5055702;28;20177;-69
2023/04/08 08:22:41;;;;;;;347.73;323.47;;;9.90;21.40;;;;;;5055755;28;20170;-70
2023/04/08 08:25:08;;;;;;;356.80;331.73;;;10.40;20.30;;;;;;5054604;28;20404;-69
2023/04/08 08:27:34;;;;;;;354.10;329.73;;;10.60;18.00;;;;;;5051946;28;20278;-69
2023/04/08 08:29:59;;;;;;;286.67;265.40;;;10.70;17.10;;;;;;5045033;28;20445;-69
2023/04/08 08:32:25;;;;;;;184.87;170.27;;;10.70;16.50;;;;;;5043283;28;20189;-69
2023/04/08 08:34:54;;;;;;;425.53;396.50;;;10.70;16.60;;;;;;5045996;28;20189;-69
2023/04/08 08:37:20;;;;;;;390.70;363.63;;;10.70;16.10;;;;;;5056491;28;20611;-69
2023/04/08 08:39:45;;;;;;;508.73;474.80;;;10.40;16.90;;;;;;5054940;28;20421;-69
2023/04/08 08:42:22;;;;;;;272.30;252.03;;;10.40;17.40;;;;;;5055466;28;20179;-70
2023/04/08 08:44:48;;;;;;;197.53;181.30;;;10.40;18.30;;;;;;5054487;28;20207;-69
2023/04/08 08:47:15;;;;;;;243.40;224.37;;;10.60;17.30;;;;;;5053619;28;20412;-69
2023/04/08 08:49:41;;;;;;;480.60;448.70;;;10.90;16.80;;;;;;5054478;28;20803;-69
2023/04/08 08:52:06;;;;;;;384.10;358.17;;;10.80;15.70;;;;;;5055216;28;20848;-69
2023/04/08 08:54:32;;;;;;;319.57;297.00;;;10.80;16.30;;;;;;5055674;28;20423;-69
2023/04/08 08:56:58;;;;;;;468.57;436.43;;;10.70;16.50;;;;;;5055877;28;20697;-69
2023/04/08 08:59:23;;;;;;;271.23;251.87;;;10.60;16.40;;;;;;5054196;28;20429;-69
2023/04/08 09:01:49;;;;;;;137.77;125.27;;;10.40;16.50;;;;;;5053501;28;20536;-69
2023/04/08 09:04:19;;;;;;;295.63;272.63;;;10.60;17.00;;;;;;5055030;28;20194;-69
2023/04/08 09:07:09;;;;;;;448.33;416.93;;;10.90;16.10;;;;;;5054488;28;20249;-69
2023/04/08 09:09:51;;;;;;;484.43;449.90;;;11.30;15.00;;;;;;5053590;28;20811;-69
2023/04/08 09:12:17;;;;;;;317.57;294.10;;;11.50;15.10;;;;;;5051964;28;20424;-69
2023/04/08 09:14:43;;;;;;;356.13;331.63;;;11.70;13.50;;;;;;5053541;28;20546;-69
2023/04/08 09:17:09;;;;;;;453.47;424.37;;;12.10;13.40;;;;;;5053321;28;20285;-69
2023/04/08 09:19:34;;;;;;;367.73;341.50;;;12.50;12.20;;;;;;5053523;28;20687;-69
2023/04/08 09:22:08;;;;;;;305.20;282.57;;;12.30;11.30;;;;;;5053066;28;20500;-69
2023/04/08 09:24:35;;;;;;;364.33;339.37;;;12.20;11.20;;;;;;5053555;28;20666;-69
2023/04/08 09:27:02;;;;;;;527.13;490.23;;;12.10;11.80;;;;;;5053011;28;21004;-69
2023/04/08 09:29:27;;;;;;;496.53;462.57;;;11.90;11.90;;;;;;5053134;28;20919;-69
2023/04/08 09:31:55;;;;;;;540.00;501.73;;;12.10;12.40;;;;;;5053104;28;20412;-69
2023/04/08 09:34:22;;;;;;;311.00;285.97;;;12.20;11.20;;;;;;5053538;28;20641;-69
2023/04/08 09:36:50;;;;;;;323.47;298.70;;;12.50;11.30;;;;;;5053198;28;20448;-69
2023/04/08 09:39:16;;;;;;;418.80;387.53;;;12.90;10.40;;;;;;5054050;28;20429;-69
2023/04/08 09:41:43;;;;;;;402.33;374.10;;;13.10;8.40;;;;;;5052319;28;20420;-69
2023/04/08 09:44:10;;;;;;;368.60;341.83;;;13.20;8.20;;;;;;5052552;28;20229;-70
2023/04/08 09:46:48;;;;;;;415.27;388.03;;;13.30;9.20;;;;;;5052809;28;20952;-69
2023/04/08 09:49:47;;;;;;;562.67;523.27;;;13.40;7.50;;;;;;5053360;28;20436;-69
2023/04/08 09:52:20;;;;;;;364.57;338.07;;;13.60;6.30;;;;;;5045005;28;20430;-69
2023/04/08 09:54:54;;;;;;;602.17;561.40;;;13.50;6.90;;;;;;5058434;28;20413;-69
2023/04/08 09:57:42;;;;;;;529.77;492.67;;;13.90;6.30;;;;;;5057735;28;20451;-69
2023/04/08 10:00:13;;;;;;;565.60;525.97;;;14.10;4.10;;;;;;5057791;28;20394;-69
2023/04/08 10:02:59;;;;;;;265.63;245.90;;;14.30;4.50;;;;;;5057461;28;20500;-69
2023/04/08 10:05:26;;;;;;;459.27;426.73;;;14.00;3.90;;;;;;5057775;28;20422;-69
2023/04/08 10:07:52;;;;;;;561.60;522.40;;;13.40;3.90;;;;;;5057663;28;20850;-69
2023/04/08 10:10:18;;;;;;;434.93;402.87;;;13.60;4.30;;;;;;5056866;28;20407;-68
2023/04/08 10:12:44;;;;;;;442.67;410.90;;;13.80;5.00;;;;;;5056822;28;20471;-69
2023/04/08 10:15:27;;;;;;;584.03;540.47;;;14.00;4.10;;;;;;5057294;28;20467;-69
2023/04/08 10:18:17;;;;;;;344.23;318.67;;;13.50;3.70;;;;;;5055237;28;20299;-69
2023/04/08 10:20:46;;;;;;;540.53;501.77;;;13.70;2.20;;;;;;5047383;28;20465;-69
2023/04/08 10:23:16;;;;;;;517.17;479.93;;;13.60;1.00;;;;;;5054346;28;20475;-69
2023/04/08 10:25:43;;;;;;;339.10;309.47;;;13.60;1.00;;;;;;5054641;28;20934;-68
2023/04/08 10:28:12;;;;;;;221.57;203.57;;;13.40;1.00;;;;;;5053182;28;20455;-70
2023/04/08 10:30:45;;;;;;;503.27;467.07;;;13.50;1.00;;;;;;5052718;28;20457;-69
2023/04/08 10:33:16;;;;;;;582.17;540.07;;;13.50;1.00;;;;;;5053707;28;20415;-69
2023/04/08 10:35:47;;;;;;;117.40;105.13;;;13.50;1.00;;;;;;5053718;28;20413;-69
2023/04/08 10:38:13;;;;;;;456.07;422.13;;;13.70;1.00;;;;;;5053773;28;20485;-70
2023/04/08 10:40:41;;;;;;;577.77;535.63;;;14.00;1.00;;;;;;5053779;28;20424;-69
2023/04/08 10:43:08;;;;;;;533.27;494.97;;;14.20;1.00;;;;;;5053402;28;20816;-70
2023/04/08 10:45:34;;;;;;;276.23;254.40;;;14.50;1.00;;;;;;5053625;28;20978;-69
2023/04/08 10:48:15;;;;;;;585.83;542.80;;;14.40;1.00;;;;;;5053394;28;20547;-69
2023/04/08 10:50:40;;;;;;;477.10;442.13;;;14.20;1.00;;;;;;5053608;28;20937;-69
2023/04/08 10:53:07;;;;;;;399.23;369.97;;;14.00;1.00;;;;;;5053406;28;20413;-69
2023/04/08 10:55:33;;;;;;;419.37;388.57;;;14.50;1.00;;;;;;5052052;28;20186;-69
2023/04/08 10:58:06;;;;;;;504.40;468.00;;;14.60;1.00;;;;;;5053354;28;20830;-69
2023/04/08 11:00:37;;;;;;;408.33;378.87;;;14.80;1.00;;;;;;5053473;28;20419;-69
2023/04/08 11:03:03;;;;;;;604.37;559.50;;;15.10;1.00;;;;;;5052630;28;20462;-69
2023/04/08 11:05:30;;;;;;;407.93;378.57;;;15.00;1.00;;;;;;5053380;28;20408;-69
2023/04/08 11:07:56;;;;;;;531.00;493.20;;;15.20;1.00;;;;;;5053328;28;20982;-70
2023/04/08 11:10:22;;;;;;;592.23;549.20;;;14.70;1.00;;;;;;5053267;28;20423;-69
2023/04/08 11:12:48;;;;;;;561.97;521.70;;;14.60;1.00;;;;;;5052922;28;20409;-69
2023/04/08 11:15:14;;;;;;;473.57;439.30;;;14.40;1.00;;;;;;5053162;28;20258;-69
2023/04/08 11:17:41;;;;;;;594.40;552.13;;;14.30;1.00;;;;;;5052922;28;21119;-69
2023/04/08 11:20:08;;;;;;;471.00;435.83;;;;;;;;;;5053053;28;20413;-70
2023/04/08 11:22:35;;;;;;;463.73;430.43;;;13.60;1.00;;;;;;5052861;28;20954;-69
2023/04/08 11:25:01;;;;;;;358.33;331.33;;;13.30;1.00;;;;;;5051677;28;20456;-69
2023/04/08 11:27:27;;;;;;;647.50;603.03;;;13.00;1.00;;;;;;5052724;28;20474;-69
2023/04/08 11:29:56;;;;;;;389.07;359.43;;;12.90;1.00;;;;;;5052839;28;20453;-69
2023/04/08 11:32:22;;;;;;;379.73;351.17;;;12.70;1.00;;;;;;5052500;28;20512;-69
2023/04/08 11:34:48;;;;;;;580.53;541.93;;;12.50;1.00;;;;;;5052731;28;20440;-69
2023/04/08 11:37:14;;;;;;;273.23;253.27;;;;;;;;;;5051222;28;20461;-69
2023/04/08 11:39:43;;;;;;;517.60;478.87;;;12.40;1.70;;;;;;5053029;28;20960;-68
2023/04/08 11:42:25;;;;;;;283.43;261.57;;;;;;;;;;5052409;28;20491;-69
2023/04/08 11:44:51;;;;;;;499.90;465.33;;;;;;;;;;5052671;28;20492;-69
2023/04/08 11:47:16;;;;;;;654.03;608.30;;;12.30;1.50;;;;;;5051310;28;20513;-69
2023/04/08 11:49:45;;;;;;;420.87;389.87;;;12.10;1.00;;;;;;5052681;28;20474;-69
2023/04/08 11:52:11;;;;;;;456.23;424.27;;;12.20;1.00;;;;;;5051131;28;20194;-69
2023/04/08 11:54:40;;;;;;;340.37;313.50;;;;;;;;;;5052656;28;20425;-69
2023/04/08 11:57:08;;;;;;;380.17;352.20;;;;;;;;;;5052249;28;20240;-69
2023/04/08 11:59:35;;;;;;;308.50;285.50;;;12.10;1.00;;;;;;5052441;28;20447;-69
2023/04/08 12:02:01;;;;;;;547.70;507.60;;;;;;;;;;5052199;28;20418;-69
2023/04/08 12:04:27;;;;;;;449.23;417.17;;;;;;;;;;5052240;28;20410;-69
2023/04/08 12:06:52;;;;;;;454.47;422.37;;;;;;;;;;5052600;28;20420;-68
2023/04/08 12:09:18;;;;;;;291.97;270.17;;;;;;;;;;5052319;28;20451;-69
2023/04/08 12:11:44;;;;;;;524.10;487.90;;;;;;;;;;5051823;28;20444;-69
2023/04/08 12:14:10;;;;;;;223.30;205.90;;;;;;;;;;5051833;28;20413;-69
2023/04/08 12:16:36;;;;;;;601.07;556.40;;;;;;;;;;5052467;28;20453;-69
2023/04/08 12:19:02;;;;;;;330.20;304.50;;;;;;;;;;5052419;28;20425;-69
2023/04/08 12:21:28;;;;;;;510.87;474.87;;;;;;;;;;5050846;28;20417;-69
2023/04/08 12:23:54;;;;;;;395.27;366.13;;;;;;;;;;5052074;28;20471;-69